Bookmark and Share
Track history (hours):
 

Blessing Sw

Last reported at 2014-Apr-24 16:24 UTC. Time now 2014-Apr-24 22:05 UTC.
Position N 50°05' W 002°16'.

Length 171 m; draft 9.7 m.

Type: Cargo ship. MMSI: 372085000.

NotesDate/timePositionNaut miles runAvg speedWind from/ knotsBaromVisibWave heightAir tempDewpointWater temp
2014-Apr-24 16:24N 50°05' W 002°16'10 8.3
2014-Apr-24 15:15N 50°08' W 002°01'8 8.6
2014-Apr-24 14:21N 50°10' W 001°50'8 9.4
2014-Apr-24 13:30N 50°12' W 001°38'1210.8
2014-Apr-24 12:21N 50°16' W 001°19'1012.2
2014-Apr-24 11:34N 50°19' W 001°05'1413.3
2014-Apr-24 10:30N 50°22' W 000°43'1312.9
2014-Apr-24 09:31N 50°26' W 000°25'1512.2
2014-Apr-24 08:20N 50°30' W 000°03'1211.4
2014-Apr-24 07:14N 50°33' E 000°16'710.8
2014-Apr-24 06:33N 50°35' E 000°27'1010.0
2014-Apr-24 05:33N 50°40' E 000°41'10 9.9
2014-Apr-24 04:34N 50°45' E 000°55'1310.4
2014-Apr-24 03:18N 50°52' E 001°12'911.6
2014-Apr-24 02:31N 50°58' E 001°23'1212.5
2014-Apr-24 01:34N 51°07' E 001°36'1212.0
2014-Apr-24 00:34N 51°16' E 001°49'1111.0
2014-Apr-23 23:34N 51°25' E 001°57'1110.2
2014-Apr-23 22:28N 51°34' E 002°09'9 9.7
2014-Apr-23 21:33N 51°41' E 002°18'10 9.6
2014-Apr-23 20:33N 51°48' E 002°28'7810.9
2014-Apr-23 13:21N 53°00' E 003°18'1411.1
2014-Apr-23 12:03N 53°14' E 003°25'5110.3
2014-Apr-23 07:05N 53°58' E 004°11'711.4
2014-Apr-23 06:28N 54°03' E 004°19'29610.8
2014-Apr-22 03:08N 57°47' E 010°03'711.7
2014-Apr-22 02:33N 57°47' E 010°15'1212.1
2014-Apr-22 01:34N 57°47' E 010°38'1110.7
2014-Apr-22 00:33N 57°43' E 010°56'1111.3
2014-Apr-21 23:34N 57°35' E 011°12'1111.2
2014-Apr-21 22:33N 57°27' E 011°27'1111.0
2014-Apr-21 21:33N 57°17' E 011°34'1211.3
2014-Apr-21 20:28N 57°05' E 011°42'1011.1
2014-Apr-21 19:34N 56°56' E 011°49'1210.9
2014-Apr-21 18:27N 56°44' E 011°55'133 9.0
2014-Apr-21 03:34N 54°32' E 011°24'1212.0
2014-Apr-21 02:34N 54°27' E 011°43'1211.8
2014-Apr-21 01:33N 54°27' E 012°03'1010.0
2014-Apr-21 00:34N 54°34' E 012°14'1110.8
2014-Apr-20 23:33N 54°42' E 012°27'1110.9
2014-Apr-20 22:34N 54°48' E 012°43'1110.8
2014-Apr-20 21:33N 54°51' E 013°01'1111.5
2014-Apr-20 20:34N 54°55' E 013°20'1111.3
2014-Apr-20 19:33N 54°59' E 013°38'1010.5
2014-Apr-20 18:34N 54°51' E 013°50'1110.9
2014-Apr-20 17:34N 54°43' E 014°03'1111.4
2014-Apr-20 16:34N 54°39' E 014°21'1210.8
2014-Apr-20 15:27N 54°41' E 014°42'1111.2
2014-Apr-20 14:27N 54°45' E 015°00'1111.1
2014-Apr-20 13:26N 54°49' E 015°18'1011.3
2014-Apr-20 12:32N 54°53' E 015°35'1311.5
2014-Apr-20 11:23N 54°58' E 015°56'1311.7
2014-Apr-20 10:18N 55°02' E 016°17'4611.1
2014-Apr-20 06:09N 55°14' E 017°35'711.4
2014-Apr-20 05:33N 55°16' E 017°46'1111.2
2014-Apr-20 04:33N 55°19' E 018°05'1111.3
2014-Apr-20 03:33N 55°22' E 018°25'1111.3
2014-Apr-20 02:33N 55°25' E 018°44'1111.2
2014-Apr-20 01:33N 55°27' E 019°03'1111.2
2014-Apr-20 00:33N 55°30' E 019°22'  
2014-Apr-16 13:11N 55°43' E 020°51'0 0.0
2014-Apr-16 12:23N 55°43' E 020°51'0 0.0
2014-Apr-16 11:29N 55°43' E 020°51'0 0.0
2014-Apr-16 10:32N 55°43' E 020°51'0 0.0
2014-Apr-16 09:23N 55°43' E 020°51'64 1.9
2014-Apr-14 23:34N 55°27' E 019°01'1212.2
2014-Apr-14 22:33N 55°24' E 018°40'1212.3
2014-Apr-14 21:33N 55°21' E 018°19'  

Dump ship's entire track history

sailing weather and tide predictions

Blessing Sw — 3FIP7 — position and weather